createdAt,value
2022-11-02T00:00:21.308Z,6.97
2022-11-02T00:03:08.098Z,7.47
2022-11-02T00:05:35.234Z,7.20
2022-11-02T00:08:01.282Z,6.87
2022-11-02T00:10:29.226Z,7.23
2022-11-02T00:12:55.896Z,7.60
2022-11-02T00:15:25.212Z,7.97
2022-11-02T00:17:55.347Z,7.07
2022-11-02T00:20:22.187Z,9.23
2022-11-02T00:22:51.527Z,14.27
2022-11-02T00:25:20.280Z,16.87
2022-11-02T00:27:46.411Z,13.53
2022-11-02T00:30:14.744Z,16.37
2022-11-02T00:32:40.898Z,11.20
2022-11-02T00:35:07.668Z,12.77
2022-11-02T00:40:05.870Z,16.37
2022-11-02T00:42:32.025Z,9.90
2022-11-02T00:44:58.620Z,12.70
2022-11-02T00:47:24.695Z,12.73
2022-11-02T00:49:52.764Z,10.60
2022-11-02T00:52:18.881Z,11.07
2022-11-02T00:54:49.070Z,8.77
2022-11-02T00:57:15.420Z,8.87
2022-11-02T00:59:41.870Z,8.23
2022-11-02T01:02:08.376Z,8.10
2022-11-02T01:04:34.837Z,8.40
2022-11-02T01:07:01.775Z,8.10
2022-11-02T01:09:28.438Z,8.43
2022-11-02T01:11:54.614Z,8.37
2022-11-02T01:14:21.670Z,7.87
2022-11-02T01:16:47.929Z,8.13
2022-11-02T01:19:14.278Z,7.37
2022-11-02T01:21:40.353Z,7.37
2022-11-02T01:24:07.104Z,8.00
2022-11-02T01:26:33.525Z,8.10
2022-11-02T01:29:00.023Z,7.70
2022-11-02T01:31:26.107Z,8.07
2022-11-02T01:33:52.384Z,7.80
2022-11-02T01:38:51.505Z,8.40
2022-11-02T01:41:17.748Z,7.63
2022-11-02T01:43:46.723Z,7.33
2022-11-02T01:46:20.092Z,7.30
2022-11-02T01:48:51.222Z,7.17
2022-11-02T01:51:29.579Z,8.10
2022-11-02T01:54:00.224Z,7.83
2022-11-02T01:56:30.909Z,8.03
2022-11-02T01:59:03.676Z,8.77
2022-11-02T02:01:31.011Z,9.37
2022-11-02T02:03:57.611Z,8.90
2022-11-02T02:06:27.642Z,9.10
2022-11-02T02:08:58.944Z,8.73
2022-11-02T02:11:33.296Z,9.83
2022-11-02T02:14:08.687Z,9.27
2022-11-02T02:16:56.232Z,9.77
2022-11-02T02:19:52.785Z,9.77
2022-11-02T02:22:30.734Z,9.93
2022-11-02T02:25:39.029Z,10.10
2022-11-02T02:28:30.976Z,9.90
2022-11-02T02:31:10.983Z,9.47
2022-11-02T02:34:04.919Z,10.10
2022-11-02T02:39:27.941Z,10.40
2022-11-02T02:42:00.419Z,11.30
2022-11-02T02:44:33.559Z,9.53
2022-11-02T02:47:12.562Z,7.73
2022-11-02T02:49:52.124Z,6.83
2022-11-02T02:52:21.076Z,7.20
2022-11-02T02:54:50.130Z,8.17
2022-11-02T02:57:20.982Z,7.70
2022-11-02T02:59:48.415Z,7.80
2022-11-02T03:02:22.548Z,7.43
2022-11-02T03:04:48.901Z,7.17
2022-11-02T03:07:23.451Z,7.07
2022-11-02T03:10:00.771Z,6.60
2022-11-02T03:12:59.948Z,7.40
2022-11-02T03:15:46.245Z,7.77
2022-11-02T03:18:48.356Z,10.50
2022-11-02T03:21:29.627Z,9.73
2022-11-02T03:24:26.832Z,9.77
2022-11-02T03:27:06.173Z,7.50
2022-11-02T03:32:41.830Z,6.80
2022-11-02T03:35:34.404Z,6.50
2022-11-02T03:38:10.390Z,6.67
2022-11-02T03:40:47.280Z,7.53
2022-11-02T03:43:15.547Z,7.40
2022-11-02T03:45:46.835Z,7.80
2022-11-02T03:48:15.946Z,7.90
2022-11-02T03:50:47.954Z,8.00
2022-11-02T03:53:48.971Z,7.47
2022-11-02T03:56:30.956Z,7.93
2022-11-02T03:58:57.691Z,8.20
2022-11-02T04:01:26.563Z,9.33
2022-11-02T04:03:52.910Z,10.17
2022-11-02T04:06:38.765Z,9.37
2022-11-02T04:09:05.188Z,10.33
2022-11-02T04:11:50.287Z,9.57
2022-11-02T04:14:36.205Z,9.30
2022-11-02T04:17:27.084Z,9.50
2022-11-02T04:19:54.252Z,8.70
2022-11-02T04:22:40.720Z,10.40
2022-11-02T04:25:19.542Z,9.30
2022-11-02T04:28:07.999Z,10.00
2022-11-02T04:30:37.565Z,9.70
2022-11-02T04:33:22.770Z,9.40
2022-11-02T04:35:54.417Z,9.40
2022-11-02T04:38:39.773Z,11.10
2022-11-02T04:41:29.583Z,9.83
2022-11-02T04:43:57.389Z,9.07
2022-11-02T04:46:26.596Z,11.10
2022-11-02T04:48:54.620Z,10.17
2022-11-02T04:51:22.970Z,9.90
2022-11-02T04:53:52.054Z,11.07
2022-11-02T04:56:19.124Z,11.70
2022-11-02T04:58:53.924Z,10.80
2022-11-02T05:01:24.682Z,10.70
2022-11-02T05:03:53.247Z,11.40
2022-11-02T05:06:21.087Z,9.67
2022-11-02T05:08:48.517Z,10.07
2022-11-02T05:11:15.251Z,10.30
2022-11-02T05:13:43.988Z,9.03
2022-11-02T05:16:15.949Z,9.33
2022-11-02T05:18:43.281Z,11.27
2022-11-02T05:21:11.511Z,9.17
2022-11-02T05:23:38.940Z,11.03
2022-11-02T05:26:09.721Z,13.70
2022-11-02T05:28:37.703Z,10.60
2022-11-02T05:31:05.438Z,9.37
2022-11-02T05:33:34.526Z,9.07
2022-11-02T05:36:06.612Z,8.83
2022-11-02T05:38:35.661Z,8.80
2022-11-02T05:41:02.118Z,9.10
2022-11-02T05:43:32.969Z,9.20
2022-11-02T05:46:02.372Z,8.70
2022-11-02T05:48:32.149Z,9.20
2022-11-02T05:51:00.774Z,9.60
2022-11-02T05:53:31.866Z,10.13
2022-11-02T05:55:59.597Z,10.20
2022-11-02T05:58:27.096Z,11.40
2022-11-02T06:00:53.520Z,10.80
2022-11-02T06:03:20.225Z,9.97
2022-11-02T06:05:46.540Z,11.10
2022-11-02T06:08:12.892Z,10.87
2022-11-02T06:10:42.233Z,11.13
2022-11-02T06:13:14.957Z,10.93
2022-11-02T06:15:41.211Z,10.47
2022-11-02T06:18:07.697Z,9.70
2022-11-02T06:20:34.316Z,8.57
2022-11-02T06:23:00.669Z,8.80
2022-11-02T06:25:26.822Z,9.47
2022-11-02T06:27:55.935Z,8.47
2022-11-02T06:30:25.528Z,8.27
2022-11-02T06:32:53.167Z,8.27
2022-11-02T06:35:21.430Z,7.83
2022-11-02T06:37:48.320Z,8.40
2022-11-02T06:40:15.615Z,7.63
2022-11-02T06:42:45.228Z,8.03
2022-11-02T06:45:23.522Z,7.83
2022-11-02T06:47:50.264Z,7.30
2022-11-02T06:50:16.908Z,7.47
2022-11-02T06:52:44.885Z,8.23
2022-11-02T06:55:13.200Z,7.43
2022-11-02T06:57:41.174Z,7.03
2022-11-02T07:00:11.803Z,7.97
2022-11-02T07:02:39.340Z,6.70
2022-11-02T07:05:06.434Z,7.27
2022-11-02T07:07:32.936Z,6.90
2022-11-02T07:09:59.176Z,6.87
2022-11-02T07:12:26.072Z,6.73
2022-11-02T07:14:55.612Z,7.00
2022-11-02T07:17:21.996Z,6.40
2022-11-02T07:19:48.178Z,6.57
2022-11-02T07:22:14.635Z,6.47
2022-11-02T07:24:40.952Z,6.20
2022-11-02T07:27:07.248Z,6.40
2022-11-02T07:29:33.356Z,6.23
2022-11-02T07:31:59.669Z,6.40
2022-11-02T07:34:25.780Z,5.67
2022-11-02T07:36:52.058Z,5.67
2022-11-02T07:39:18.245Z,5.60
2022-11-02T07:41:49.290Z,5.33
2022-11-02T07:44:17.798Z,4.83
2022-11-02T07:46:52.888Z,4.90
2022-11-02T07:49:21.667Z,5.10
2022-11-02T07:51:48.262Z,5.03
2022-11-02T07:54:14.349Z,4.53
2022-11-02T07:56:40.756Z,4.50
2022-11-02T07:59:09.721Z,5.17
2022-11-02T08:01:36.250Z,4.60
2022-11-02T08:04:02.718Z,5.07
2022-11-02T08:06:29.260Z,4.77
2022-11-02T08:08:56.089Z,4.23
2022-11-02T08:11:42.570Z,4.23
2022-11-02T08:14:08.880Z,4.97
2022-11-02T08:16:35.205Z,5.30
2022-11-02T08:19:01.680Z,4.77
2022-11-02T08:21:28.007Z,4.57
2022-11-02T08:23:58.360Z,4.30
2022-11-02T08:26:25.090Z,4.47
2022-11-02T08:28:51.694Z,4.67
2022-11-02T08:31:18.113Z,4.53
2022-11-02T08:33:45.007Z,4.67
2022-11-02T08:36:11.870Z,4.50
2022-11-02T08:38:39.182Z,4.60
2022-11-02T08:41:05.608Z,4.90
2022-11-02T08:43:31.991Z,4.67
2022-11-02T08:46:16.820Z,4.10
2022-11-02T08:48:44.332Z,4.30
2022-11-02T08:51:10.569Z,4.53
2022-11-02T08:53:37.114Z,4.47
2022-11-02T08:56:03.533Z,4.37
2022-11-02T08:58:29.953Z,3.83
2022-11-02T09:00:56.257Z,3.97
2022-11-02T09:03:26.815Z,3.90
2022-11-02T09:05:59.386Z,3.73
2022-11-02T09:08:26.813Z,3.20
2022-11-02T09:10:56.832Z,3.90
2022-11-02T09:13:25.945Z,3.80
2022-11-02T09:15:54.450Z,3.13
2022-11-02T09:18:21.874Z,3.20
2022-11-02T09:20:49.110Z,3.93
2022-11-02T09:23:16.162Z,3.57
2022-11-02T09:25:42.386Z,3.30
2022-11-02T09:28:09.104Z,3.00
2022-11-02T09:30:35.621Z,2.80
2022-11-02T09:33:04.938Z,3.10
2022-11-02T09:35:43.099Z,3.37
2022-11-02T09:38:09.897Z,3.10
2022-11-02T09:40:44.283Z,3.10
2022-11-02T09:43:32.404Z,2.57
2022-11-02T09:46:08.764Z,2.93
2022-11-02T09:48:47.168Z,2.77
2022-11-02T09:51:24.672Z,2.97
2022-11-02T09:54:18.892Z,2.60
2022-11-02T09:56:46.372Z,2.87
2022-11-02T09:59:17.022Z,3.13
2022-11-02T10:01:57.064Z,2.63
2022-11-02T10:04:48.154Z,3.33
2022-11-02T10:07:51.799Z,2.93
2022-11-02T10:10:38.536Z,2.67
2022-11-02T10:13:20.163Z,2.73
2022-11-02T10:15:54.539Z,2.97
2022-11-02T10:18:26.369Z,3.07
2022-11-02T10:20:57.571Z,2.67
2022-11-02T10:23:32.475Z,2.43
2022-11-02T10:26:01.029Z,2.10
2022-11-02T10:28:31.895Z,2.70
2022-11-02T10:30:59.754Z,2.03
2022-11-02T10:33:28.992Z,2.97
2022-11-02T10:36:18.825Z,2.27
2022-11-02T10:38:45.647Z,2.43
2022-11-02T10:41:41.330Z,2.93
2022-11-02T10:44:24.474Z,2.00
2022-11-02T10:47:00.241Z,2.77
2022-11-02T10:49:57.440Z,2.53
2022-11-02T10:52:24.167Z,2.83
2022-11-02T10:54:50.973Z,2.50
2022-11-02T10:57:22.874Z,2.33
2022-11-02T11:00:23.331Z,2.30
2022-11-02T11:03:03.660Z,2.10
2022-11-02T11:05:32.616Z,2.17
2022-11-02T11:08:00.097Z,2.47
2022-11-02T11:10:26.917Z,2.77
2022-11-02T11:12:55.057Z,2.20
2022-11-02T11:21:00.506Z,2.50
2022-11-02T11:23:27.080Z,2.20
2022-11-02T11:26:04.753Z,2.43
2022-11-02T11:28:51.264Z,2.37
2022-11-02T11:31:18.395Z,2.40
2022-11-02T11:33:54.346Z,2.00
2022-11-02T11:36:38.799Z,2.20
2022-11-02T11:39:29.685Z,2.23
2022-11-02T11:41:57.726Z,1.80
2022-11-02T11:44:24.906Z,2.67
2022-11-02T11:46:55.609Z,1.93
2022-11-02T11:52:21.067Z,3.60
2022-11-02T11:54:53.201Z,2.30
2022-11-02T11:57:33.581Z,2.27
2022-11-02T12:00:04.265Z,2.20
2022-11-02T12:02:34.943Z,2.00
2022-11-02T12:05:17.813Z,2.10
2022-11-02T12:08:07.514Z,1.80
2022-11-02T12:11:21.247Z,2.17
2022-11-02T12:13:58.641Z,2.13
2022-11-02T12:16:59.944Z,2.53
2022-11-02T12:19:36.418Z,1.93
2022-11-02T12:22:10.223Z,2.20
2022-11-02T12:25:03.671Z,2.50
2022-11-02T12:27:36.248Z,2.33
2022-11-02T12:30:11.902Z,2.23
2022-11-02T12:33:16.333Z,2.00
2022-11-02T12:35:50.167Z,2.43
2022-11-02T12:38:35.321Z,2.07
2022-11-02T12:41:06.370Z,2.10
2022-11-02T12:43:48.411Z,2.47
2022-11-02T12:46:38.447Z,2.00
2022-11-02T12:49:32.246Z,2.30
2022-11-02T12:52:17.504Z,2.27
2022-11-02T12:54:55.670Z,2.20
2022-11-02T12:57:24.954Z,1.93
2022-11-02T12:59:57.183Z,1.97
2022-11-02T13:02:29.361Z,2.17
2022-11-02T13:05:02.977Z,1.90
2022-11-02T13:08:04.885Z,1.50
2022-11-02T13:10:59.745Z,2.23
2022-11-02T13:13:44.627Z,2.03
2022-11-02T13:16:14.615Z,1.40
2022-11-02T13:18:46.648Z,1.70
2022-11-02T13:21:15.926Z,1.40
2022-11-02T13:23:56.176Z,1.50
2022-11-02T13:26:37.147Z,1.80
2022-11-02T13:29:18.577Z,1.50
2022-11-02T13:31:51.553Z,1.60
2022-11-02T13:34:28.614Z,1.60
2022-11-02T13:36:55.484Z,1.30
2022-11-02T13:39:31.143Z,1.47
2022-11-02T13:42:10.990Z,2.00
2022-11-02T13:45:16.087Z,1.67
2022-11-02T13:48:01.069Z,1.43
2022-11-02T13:50:30.380Z,1.40
2022-11-02T13:53:04.521Z,1.57
2022-11-02T13:55:42.879Z,1.77
2022-11-02T13:58:20.517Z,1.67
2022-11-02T14:00:47.054Z,1.40
2022-11-02T14:03:19.993Z,1.43
2022-11-02T14:05:55.308Z,1.77
2022-11-02T14:08:28.992Z,1.77
2022-11-02T14:11:08.948Z,1.90
2022-11-02T14:13:53.718Z,1.73
2022-11-02T14:16:41.672Z,1.50
2022-11-02T14:19:19.104Z,1.70
2022-11-02T14:21:52.325Z,1.43
2022-11-02T14:24:33.770Z,1.40
2022-11-02T14:27:24.497Z,1.90
2022-11-02T14:29:53.498Z,1.73
2022-11-02T14:32:19.732Z,1.40
2022-11-02T14:35:04.511Z,1.63
2022-11-02T14:37:58.904Z,2.10
2022-11-02T14:40:56.251Z,1.97
2022-11-02T14:44:00.961Z,1.47
2022-11-02T14:46:56.097Z,1.47
2022-11-02T14:49:27.292Z,1.60
2022-11-02T14:52:04.861Z,1.43
2022-11-02T14:54:58.413Z,2.10
2022-11-02T14:57:56.074Z,1.87
2022-11-02T15:00:32.077Z,1.53
2022-11-02T15:02:59.755Z,1.30
2022-11-02T15:05:38.633Z,1.47
2022-11-02T15:08:22.517Z,1.60
2022-11-02T15:10:49.146Z,1.83
2022-11-02T15:13:18.572Z,1.40
2022-11-02T15:15:50.992Z,1.40
2022-11-02T15:18:28.755Z,2.00
2022-11-02T15:21:10.492Z,1.63
2022-11-02T15:23:55.457Z,1.47
2022-11-02T15:26:48.951Z,1.63
2022-11-02T15:29:43.461Z,1.43
2022-11-02T15:32:22.372Z,2.10
2022-11-02T15:34:53.017Z,2.10
2022-11-02T15:37:29.273Z,2.17
2022-11-02T15:39:59.158Z,2.10
2022-11-02T15:42:40.545Z,2.30
2022-11-02T15:45:52.908Z,2.10
2022-11-02T15:48:31.806Z,2.60
2022-11-02T15:51:13.240Z,2.00
2022-11-02T15:54:00.160Z,2.60
2022-11-02T15:56:54.662Z,2.83
2022-11-02T15:59:28.766Z,2.50
2022-11-02T16:02:11.212Z,2.43
2022-11-02T16:04:38.092Z,2.70
2022-11-02T16:07:06.365Z,2.70
2022-11-02T16:09:35.722Z,3.00
2022-11-02T16:12:02.281Z,2.17
2022-11-02T16:14:31.696Z,2.50
2022-11-02T16:16:58.125Z,2.67
2022-11-02T16:19:24.621Z,2.43
2022-11-02T16:21:51.160Z,2.60
2022-11-02T16:24:18.594Z,2.77
2022-11-02T16:26:46.369Z,2.33
2022-11-02T16:29:24.965Z,2.63
2022-11-02T16:31:51.221Z,2.00
2022-11-02T16:34:17.633Z,2.27
2022-11-02T16:36:44.059Z,2.30
2022-11-02T16:39:15.931Z,2.07
2022-11-02T16:41:47.724Z,2.27
2022-11-02T16:44:23.571Z,2.30
2022-11-02T16:46:55.019Z,2.67
2022-11-02T16:49:28.784Z,2.63
2022-11-02T16:52:00.054Z,1.90
2022-11-02T16:54:26.592Z,2.60
2022-11-02T16:56:54.926Z,2.70
2022-11-02T16:59:22.535Z,2.10
2022-11-02T17:01:49.295Z,1.90
2022-11-02T17:04:23.965Z,2.13
2022-11-02T17:06:57.851Z,2.43
2022-11-02T17:09:33.144Z,2.60
2022-11-02T17:12:15.262Z,3.00
2022-11-02T17:14:44.222Z,2.63
2022-11-02T17:17:23.287Z,2.77
2022-11-02T17:20:04.713Z,3.07
2022-11-02T17:22:36.336Z,2.70
2022-11-02T17:25:32.779Z,3.03
2022-11-02T17:28:23.994Z,2.80
2022-11-02T17:30:52.149Z,2.53
2022-11-02T17:33:29.015Z,2.93
2022-11-02T17:36:02.449Z,2.83
2022-11-02T17:38:29.370Z,2.70
2022-11-02T17:40:58.458Z,2.97
2022-11-02T17:43:25.381Z,3.10
2022-11-02T17:45:59.783Z,2.80
2022-11-02T17:48:30.856Z,2.57
2022-11-02T17:50:59.189Z,2.90
2022-11-02T17:53:26.233Z,2.50
2022-11-02T17:55:53.793Z,3.60
2022-11-02T17:58:20.571Z,3.10
2022-11-02T18:00:47.298Z,3.17
2022-11-02T18:03:19.673Z,3.23
2022-11-02T18:05:50.147Z,3.47
2022-11-02T18:08:18.628Z,3.03
2022-11-02T18:10:47.107Z,3.17
2022-11-02T18:13:17.041Z,3.27
2022-11-02T18:15:43.953Z,3.40
2022-11-02T18:18:11.355Z,3.33
2022-11-02T18:20:41.518Z,3.43
2022-11-02T18:23:15.278Z,3.87
2022-11-02T18:25:41.797Z,5.97
2022-11-02T18:28:08.640Z,6.70
2022-11-02T18:30:35.056Z,5.47
2022-11-02T18:33:02.970Z,5.50
2022-11-02T18:35:29.130Z,4.90
2022-11-02T18:37:55.923Z,5.50
2022-11-02T18:40:22.206Z,5.10
2022-11-02T18:42:49.557Z,4.47
2022-11-02T18:45:15.966Z,5.27
2022-11-02T18:47:42.474Z,4.63
2022-11-02T18:50:11.767Z,4.80
2022-11-02T18:52:38.834Z,3.83
2022-11-02T18:55:08.316Z,4.10
2022-11-02T18:57:34.826Z,3.93
2022-11-02T19:00:03.968Z,4.20
2022-11-02T19:02:30.912Z,4.03
2022-11-02T19:04:57.278Z,3.80
2022-11-02T19:07:42.977Z,4.67
2022-11-02T19:10:09.527Z,3.90
2022-11-02T19:12:36.574Z,3.87
2022-11-02T19:15:03.755Z,2.77
2022-11-02T19:17:30.349Z,3.00
2022-11-02T19:19:56.563Z,2.43
2022-11-02T19:22:25.307Z,2.87
2022-11-02T19:24:52.061Z,2.27
2022-11-02T19:27:23.502Z,2.80
2022-11-02T19:29:50.799Z,2.10
2022-11-02T19:32:18.390Z,2.20
2022-11-02T19:34:45.132Z,2.10
2022-11-02T19:37:12.707Z,2.10
2022-11-02T19:39:38.942Z,2.07
2022-11-02T19:42:06.837Z,2.10
2022-11-02T19:44:36.973Z,1.90
2022-11-02T19:47:07.729Z,1.87
2022-11-02T19:49:34.104Z,2.27
2022-11-02T19:52:00.883Z,2.10
2022-11-02T19:54:27.239Z,2.17
2022-11-02T19:56:53.804Z,3.33
2022-11-02T19:59:21.881Z,3.37
2022-11-02T20:01:49.946Z,3.10
2022-11-02T20:04:16.812Z,4.40
2022-11-02T20:06:44.599Z,4.20
2022-11-02T20:09:17.136Z,4.80
2022-11-02T20:11:45.743Z,5.43
2022-11-02T20:14:14.301Z,5.57
2022-11-02T20:16:41.644Z,4.10
2022-11-02T20:19:08.477Z,4.93
2022-11-02T20:21:41.553Z,5.17
2022-11-02T20:24:11.500Z,7.53
2022-11-02T20:26:43.004Z,6.87
2022-11-02T20:29:12.276Z,5.97
2022-11-02T20:31:43.521Z,5.67
2022-11-02T20:34:12.124Z,5.27
2022-11-02T20:36:38.942Z,5.00
2022-11-02T20:39:06.889Z,5.23
2022-11-02T20:41:33.492Z,4.27
2022-11-02T20:44:02.611Z,4.17
2022-11-02T20:46:40.027Z,5.27
2022-11-02T20:49:20.742Z,4.93
2022-11-02T20:51:54.566Z,4.73
2022-11-02T20:54:22.225Z,4.20
2022-11-02T20:56:49.593Z,4.50
2022-11-02T20:59:16.407Z,4.53
2022-11-02T21:01:43.254Z,4.30
2022-11-02T21:04:11.790Z,4.47
2022-11-02T21:06:40.756Z,4.17
2022-11-02T21:09:10.956Z,4.57
2022-11-02T21:11:57.903Z,4.73
2022-11-02T21:14:24.296Z,4.73
2022-11-02T21:16:50.725Z,5.50
2022-11-02T21:19:16.994Z,6.10
2022-11-02T21:21:43.461Z,5.10
2022-11-02T21:24:09.705Z,6.13
2022-11-02T21:26:36.163Z,4.73
2022-11-02T21:29:02.649Z,6.70
2022-11-02T21:31:29.061Z,6.30
2022-11-02T21:33:55.312Z,5.90
2022-11-02T21:36:21.716Z,6.03
2022-11-02T21:38:47.969Z,6.47
2022-11-02T21:41:18.889Z,5.80
2022-11-02T21:43:45.209Z,7.73
2022-11-02T21:46:11.674Z,8.00
2022-11-02T21:48:38.057Z,7.07
2022-11-02T21:51:07.652Z,5.63
2022-11-02T21:53:36.147Z,5.53
2022-11-02T21:56:07.341Z,5.87
2022-11-02T21:58:34.349Z,7.27
2022-11-02T22:01:22.591Z,7.83
2022-11-02T22:03:50.291Z,7.67
2022-11-02T22:06:17.217Z,10.03
2022-11-02T22:08:43.717Z,8.33
2022-11-02T22:11:12.449Z,8.60
2022-11-02T22:13:40.169Z,7.70
2022-11-02T22:16:27.202Z,8.10
2022-11-02T22:18:55.418Z,7.20
2022-11-02T22:21:23.179Z,7.03
2022-11-02T22:23:49.713Z,6.53
2022-11-02T22:26:18.398Z,6.60
2022-11-02T22:28:45.196Z,6.83
2022-11-02T22:31:22.830Z,7.13
2022-11-02T22:33:51.254Z,6.43
2022-11-02T22:36:26.236Z,5.90
2022-11-02T22:38:53.603Z,6.07
2022-11-02T22:41:24.154Z,6.20
2022-11-02T22:43:53.519Z,5.47
2022-11-02T22:46:21.000Z,4.80
2022-11-02T22:48:47.158Z,5.20
2022-11-02T22:51:13.545Z,5.40
2022-11-02T22:53:39.745Z,5.57
2022-11-02T22:56:11.339Z,5.77
2022-11-02T22:58:39.336Z,5.47
2022-11-02T23:01:07.996Z,5.30
2022-11-02T23:03:35.235Z,5.07
2022-11-02T23:06:05.733Z,5.07
2022-11-02T23:08:36.759Z,5.40
2022-11-02T23:11:22.503Z,5.83
2022-11-02T23:13:48.526Z,5.77
2022-11-02T23:16:21.825Z,8.43
2022-11-02T23:19:11.036Z,9.53
2022-11-02T23:21:39.458Z,9.50
2022-11-02T23:24:24.578Z,11.43
2022-11-02T23:26:50.908Z,11.90
2022-11-02T23:29:35.554Z,11.27
2022-11-02T23:32:20.436Z,9.13
2022-11-02T23:35:04.868Z,9.10
2022-11-02T23:37:31.195Z,7.80
2022-11-02T23:39:57.296Z,9.40
2022-11-02T23:42:23.708Z,9.60
2022-11-02T23:44:49.932Z,9.43
2022-11-02T23:47:16.684Z,8.23
2022-11-02T23:49:42.701Z,7.73
2022-11-02T23:52:31.323Z,7.90
2022-11-02T23:55:15.993Z,7.60
2022-11-02T23:57:42.854Z,7.50
